sensor_id;sensor_type;location;lat;lon;timestamp;pressure;altitude;pressure_sealevel;temperature;humidity
55470;BME280;41334;47.872;16.384;2023-04-22T00:04:11;98791.84;;;6.99;74.76
55470;BME280;41334;47.872;16.384;2023-04-22T00:09:13;98799.00;;;6.95;74.55
55470;BME280;41334;47.872;16.384;2023-04-22T00:14:14;98794.19;;;6.87;74.53
55470;BME280;41334;47.872;16.384;2023-04-22T00:19:16;98799.72;;;6.82;75.79
55470;BME280;41334;47.872;16.384;2023-04-22T00:24:18;98794.28;;;6.77;75.84
55470;BME280;41334;47.872;16.384;2023-04-22T00:29:20;98796.25;;;6.71;76.37
55470;BME280;41334;47.872;16.384;2023-04-22T00:34:22;98780.13;;;6.65;75.80
55470;BME280;41334;47.872;16.384;2023-04-22T00:39:24;98785.44;;;6.56;75.23
55470;BME280;41334;47.872;16.384;2023-04-22T00:44:27;98775.63;;;6.50;75.37
55470;BME280;41334;47.872;16.384;2023-04-22T00:49:29;98777.28;;;6.46;75.24
55470;BME280;41334;47.872;16.384;2023-04-22T00:54:33;98771.50;;;6.47;76.33
55470;BME280;41334;47.872;16.384;2023-04-22T00:59:36;98767.69;;;6.43;75.70
55470;BME280;41334;47.872;16.384;2023-04-22T01:04:38;98768.19;;;6.50;77.29
55470;BME280;41334;47.872;16.384;2023-04-22T01:09:40;98768.25;;;6.45;76.85
55470;BME280;41334;47.872;16.384;2023-04-22T01:14:42;98770.50;;;6.38;76.37
55470;BME280;41334;47.872;16.384;2023-04-22T01:19:44;98761.44;;;6.38;76.75
55470;BME280;41334;47.872;16.384;2023-04-22T01:24:46;98769.97;;;6.36;76.77
55470;BME280;41334;47.872;16.384;2023-04-22T01:29:50;98775.78;;;6.29;76.64
55470;BME280;41334;47.872;16.384;2023-04-22T01:34:53;98776.09;;;6.23;76.13
55470;BME280;41334;47.872;16.384;2023-04-22T01:39:56;98764.09;;;6.19;76.56
55470;BME280;41334;47.872;16.384;2023-04-22T01:44:58;98759.94;;;6.21;76.99
55470;BME280;41334;47.872;16.384;2023-04-22T01:50:00;98760.84;;;6.12;76.61
55470;BME280;41334;47.872;16.384;2023-04-22T01:55:03;98764.22;;;6.03;76.50
55470;BME280;41334;47.872;16.384;2023-04-22T02:00:05;98757.19;;;5.92;75.99
55470;BME280;41334;47.872;16.384;2023-04-22T02:05:16;98756.63;;;5.85;76.52
55470;BME280;41334;47.872;16.384;2023-04-22T02:10:20;98755.31;;;5.77;76.69
55470;BME280;41334;47.872;16.384;2023-04-22T02:15:22;98755.66;;;5.71;77.06
55470;BME280;41334;47.872;16.384;2023-04-22T02:20:29;98748.84;;;5.63;77.05
55470;BME280;41334;47.872;16.384;2023-04-22T02:31:08;98757.69;;;5.50;77.23
55470;BME280;41334;47.872;16.384;2023-04-22T02:36:12;98758.81;;;5.49;77.41
55470;BME280;41334;47.872;16.384;2023-04-22T02:46:51;98745.03;;;5.59;78.45
55470;BME280;41334;47.872;16.384;2023-04-22T02:51:53;98750.78;;;5.58;78.55
55470;BME280;41334;47.872;16.384;2023-04-22T02:56:55;98756.88;;;5.49;78.12
55470;BME280;41334;47.872;16.384;2023-04-22T03:01:58;98765.09;;;5.49;78.68
55470;BME280;41334;47.872;16.384;2023-04-22T03:07:21;98755.56;;;5.37;77.99
55470;BME280;41334;47.872;16.384;2023-04-22T03:12:24;98753.66;;;5.32;78.26
55470;BME280;41334;47.872;16.384;2023-04-22T03:17:28;98751.25;;;5.25;77.62
55470;BME280;41334;47.872;16.384;2023-04-22T03:22:31;98757.31;;;5.22;77.28
55470;BME280;41334;47.872;16.384;2023-04-22T03:27:35;98755.38;;;5.23;79.12
55470;BME280;41334;47.872;16.384;2023-04-22T03:32:37;98757.84;;;5.19;78.34
55470;BME280;41334;47.872;16.384;2023-04-22T03:37:51;98760.09;;;5.12;78.01
55470;BME280;41334;47.872;16.384;2023-04-22T03:42:58;98754.88;;;5.06;77.71
55470;BME280;41334;47.872;16.384;2023-04-22T03:48:01;98761.22;;;5.06;78.60
55470;BME280;41334;47.872;16.384;2023-04-22T03:53:11;98763.66;;;5.08;79.15
55470;BME280;41334;47.872;16.384;2023-04-22T03:58:14;98765.84;;;5.06;79.39
55470;BME280;41334;47.872;16.384;2023-04-22T04:03:16;98767.72;;;5.10;79.42
55470;BME280;41334;47.872;16.384;2023-04-22T04:08:22;98766.38;;;5.13;78.01
55470;BME280;41334;47.872;16.384;2023-04-22T04:13:24;98765.84;;;5.60;77.34
55470;BME280;41334;47.872;16.384;2023-04-22T04:18:45;98772.94;;;6.98;72.00
55470;BME280;41334;47.872;16.384;2023-04-22T04:23:50;98786.31;;;8.23;67.50
55470;BME280;41334;47.872;16.384;2023-04-22T04:28:56;98775.28;;;9.29;62.50
55470;BME280;41334;47.872;16.384;2023-04-22T04:34:00;98787.63;;;8.90;62.13
55470;BME280;41334;47.872;16.384;2023-04-22T04:39:02;98789.28;;;8.07;64.87
55470;BME280;41334;47.872;16.384;2023-04-22T04:44:05;98780.22;;;7.50;67.86
55470;BME280;41334;47.872;16.384;2023-04-22T04:49:11;98785.09;;;7.34;68.75
55470;BME280;41334;47.872;16.384;2023-04-22T04:54:26;98780.50;;;7.30;69.10
55470;BME280;41334;47.872;16.384;2023-04-22T04:59:29;98778.72;;;7.39;68.98
55470;BME280;41334;47.872;16.384;2023-04-22T05:04:32;98790.13;;;7.51;69.03
55470;BME280;41334;47.872;16.384;2023-04-22T05:09:34;98795.69;;;7.65;69.14
55470;BME280;41334;47.872;16.384;2023-04-22T05:14:38;98793.16;;;7.69;69.99
55470;BME280;41334;47.872;16.384;2023-04-22T05:19:41;98777.72;;;7.92;68.95
55470;BME280;41334;47.872;16.384;2023-04-22T05:24:43;98780.88;;;8.18;68.22
55470;BME280;41334;47.872;16.384;2023-04-22T05:29:45;98783.66;;;8.36;68.20
55470;BME280;41334;47.872;16.384;2023-04-22T05:34:50;98783.00;;;8.72;66.79
55470;BME280;41334;47.872;16.384;2023-04-22T05:39:52;98786.00;;;8.89;66.65
55470;BME280;41334;47.872;16.384;2023-04-22T05:44:57;98784.59;;;9.06;66.54
55470;BME280;41334;47.872;16.384;2023-04-22T05:50:02;98794.88;;;9.41;66.07
55470;BME280;41334;47.872;16.384;2023-04-22T05:55:17;98794.25;;;9.58;66.86
55470;BME280;41334;47.872;16.384;2023-04-22T06:00:19;98795.66;;;10.06;66.40
55470;BME280;41334;47.872;16.384;2023-04-22T06:05:34;98789.28;;;10.55;64.42
55470;BME280;41334;47.872;16.384;2023-04-22T06:10:36;98780.22;;;10.94;64.16
55470;BME280;41334;47.872;16.384;2023-04-22T06:15:38;98784.81;;;11.08;62.86
55470;BME280;41334;47.872;16.384;2023-04-22T06:20:40;98782.25;;;11.11;61.86
55470;BME280;41334;47.872;16.384;2023-04-22T06:25:45;98785.19;;;11.63;61.60
55470;BME280;41334;47.872;16.384;2023-04-22T06:30:48;98788.13;;;11.67;61.09
55470;BME280;41334;47.872;16.384;2023-04-22T06:35:51;98782.97;;;11.91;59.54
55470;BME280;41334;47.872;16.384;2023-04-22T06:40:53;98794.97;;;11.21;62.35
55470;BME280;41334;47.872;16.384;2023-04-22T06:45:58;98790.09;;;11.26;63.37
55470;BME280;41334;47.872;16.384;2023-04-22T06:51:23;98792.63;;;11.54;63.83
55470;BME280;41334;47.872;16.384;2023-04-22T06:56:25;98798.69;;;11.65;63.28
55470;BME280;41334;47.872;16.384;2023-04-22T07:01:26;98797.63;;;12.00;64.27
55470;BME280;41334;47.872;16.384;2023-04-22T07:06:32;98793.06;;;11.96;62.91
55470;BME280;41334;47.872;16.384;2023-04-22T07:11:34;98786.56;;;12.18;61.68
55470;BME280;41334;47.872;16.384;2023-04-22T07:16:46;98784.16;;;12.98;60.10
55470;BME280;41334;47.872;16.384;2023-04-22T07:21:48;98780.72;;;13.48;57.88
55470;BME280;41334;47.872;16.384;2023-04-22T07:26:49;98778.31;;;13.88;57.50
55470;BME280;41334;47.872;16.384;2023-04-22T07:31:51;98773.25;;;14.32;56.23
55470;BME280;41334;47.872;16.384;2023-04-22T07:36:53;98766.63;;;14.78;55.98
55470;BME280;41334;47.872;16.384;2023-04-22T07:41:55;98764.63;;;15.24;54.17
55470;BME280;41334;47.872;16.384;2023-04-22T07:46:58;98767.25;;;15.82;53.43
55470;BME280;41334;47.872;16.384;2023-04-22T07:52:00;98766.75;;;16.44;50.70
55470;BME280;41334;47.872;16.384;2023-04-22T07:57:06;98763.38;;;16.79;49.83
55470;BME280;41334;47.872;16.384;2023-04-22T08:02:08;98762.75;;;17.01;47.92
55470;BME280;41334;47.872;16.384;2023-04-22T08:07:10;98758.09;;;17.21;47.79
55470;BME280;41334;47.872;16.384;2023-04-22T08:12:32;98750.78;;;17.48;47.00
55470;BME280;41334;47.872;16.384;2023-04-22T08:17:34;98749.97;;;17.79;47.18
55470;BME280;41334;47.872;16.384;2023-04-22T08:22:36;98746.53;;;18.05;45.75
55470;BME280;41334;47.872;16.384;2023-04-22T08:27:39;98738.97;;;18.45;45.41
55470;BME280;41334;47.872;16.384;2023-04-22T08:32:41;98759.78;;;18.67;45.43
55470;BME280;41334;47.872;16.384;2023-04-22T08:37:42;98740.13;;;18.63;45.09
55470;BME280;41334;47.872;16.384;2023-04-22T08:42:45;98741.44;;;18.89;45.50
55470;BME280;41334;47.872;16.384;2023-04-22T08:47:48;98750.81;;;19.00;44.40
55470;BME280;41334;47.872;16.384;2023-04-22T08:52:50;98730.34;;;18.96;44.63
55470;BME280;41334;47.872;16.384;2023-04-22T08:57:52;98744.88;;;19.24;44.32
55470;BME280;41334;47.872;16.384;2023-04-22T09:02:56;98739.00;;;19.10;43.70
55470;BME280;41334;47.872;16.384;2023-04-22T09:08:01;98744.09;;;19.50;42.43
55470;BME280;41334;47.872;16.384;2023-04-22T09:13:06;98739.06;;;19.59;43.10
55470;BME280;41334;47.872;16.384;2023-04-22T09:18:08;98738.63;;;19.84;43.42
55470;BME280;41334;47.872;16.384;2023-04-22T09:23:11;98738.09;;;19.75;43.53
55470;BME280;41334;47.872;16.384;2023-04-22T09:28:17;98737.97;;;19.94;43.16
55470;BME280;41334;47.872;16.384;2023-04-22T09:33:19;98723.81;;;20.13;42.60
55470;BME280;41334;47.872;16.384;2023-04-22T09:38:21;98720.38;;;20.27;42.98
55470;BME280;41334;47.872;16.384;2023-04-22T09:43:23;98716.97;;;20.41;41.83
55470;BME280;41334;47.872;16.384;2023-04-22T09:48:24;98718.78;;;20.60;41.65
55470;BME280;41334;47.872;16.384;2023-04-22T09:53:26;98706.00;;;20.62;40.01
55470;BME280;41334;47.872;16.384;2023-04-22T09:58:28;98699.72;;;20.76;40.61
55470;BME280;41334;47.872;16.384;2023-04-22T10:03:33;98695.91;;;20.95;39.52
55470;BME280;41334;47.872;16.384;2023-04-22T10:08:37;98688.50;;;21.21;38.98
55470;BME280;41334;47.872;16.384;2023-04-22T10:13:39;98669.56;;;21.14;38.49
55470;BME280;41334;47.872;16.384;2023-04-22T10:18:41;98676.59;;;21.31;37.49
55470;BME280;41334;47.872;16.384;2023-04-22T10:23:47;98668.78;;;21.65;37.56
55470;BME280;41334;47.872;16.384;2023-04-22T10:28:49;98659.50;;;21.61;36.75
55470;BME280;41334;47.872;16.384;2023-04-22T10:34:11;98667.31;;;21.92;33.05
55470;BME280;41334;47.872;16.384;2023-04-22T10:39:17;98659.75;;;22.07;31.02
55470;BME280;41334;47.872;16.384;2023-04-22T10:44:26;98655.06;;;22.36;31.06
55470;BME280;41334;47.872;16.384;2023-04-22T10:49:29;98655.28;;;21.99;30.75
55470;BME280;41334;47.872;16.384;2023-04-22T11:04:42;98653.53;;;22.60;30.59
55470;BME280;41334;47.872;16.384;2023-04-22T11:09:45;98645.50;;;22.80;31.10
55470;BME280;41334;47.872;16.384;2023-04-22T11:14:48;98636.31;;;21.75;33.74
55470;BME280;41334;47.872;16.384;2023-04-22T11:19:50;98636.50;;;22.21;32.04
55470;BME280;41334;47.872;16.384;2023-04-22T11:24:57;98631.50;;;21.82;34.34
55470;BME280;41334;47.872;16.384;2023-04-22T11:35:12;98631.78;;;22.50;32.10
55470;BME280;41334;47.872;16.384;2023-04-22T11:40:16;98628.97;;;22.61;32.86
55470;BME280;41334;47.872;16.384;2023-04-22T11:45:32;98632.75;;;21.92;34.68
55470;BME280;41334;47.872;16.384;2023-04-22T11:50:37;98635.97;;;21.94;32.93
55470;BME280;41334;47.872;16.384;2023-04-22T11:55:40;98616.88;;;22.42;33.01
55470;BME280;41334;47.872;16.384;2023-04-22T12:00:47;98614.44;;;22.23;33.27
55470;BME280;41334;47.872;16.384;2023-04-22T12:06:00;98623.31;;;22.39;32.41
55470;BME280;41334;47.872;16.384;2023-04-22T12:11:05;98629.03;;;21.66;34.44
55470;BME280;41334;47.872;16.384;2023-04-22T12:16:15;98615.59;;;22.15;32.84
55470;BME280;41334;47.872;16.384;2023-04-22T12:21:21;98624.13;;;22.43;33.36
55470;BME280;41334;47.872;16.384;2023-04-22T12:26:24;98619.22;;;22.12;33.62
55470;BME280;41334;47.872;16.384;2023-04-22T12:31:28;98614.81;;;22.11;33.79
55470;BME280;41334;47.872;16.384;2023-04-22T12:36:30;98606.28;;;22.00;33.44
55470;BME280;41334;47.872;16.384;2023-04-22T12:41:33;98592.75;;;22.38;34.35
55470;BME280;41334;47.872;16.384;2023-04-22T12:46:34;98603.66;;;22.71;32.30
55470;BME280;41334;47.872;16.384;2023-04-22T12:51:36;98592.78;;;23.16;31.14
55470;BME280;41334;47.872;16.384;2023-04-22T12:56:38;98588.81;;;22.92;30.77
55470;BME280;41334;47.872;16.384;2023-04-22T13:01:40;98584.34;;;22.66;31.33
55470;BME280;41334;47.872;16.384;2023-04-22T13:06:42;98575.50;;;22.71;33.57
55470;BME280;41334;47.872;16.384;2023-04-22T13:11:44;98572.66;;;22.68;32.55
55470;BME280;41334;47.872;16.384;2023-04-22T13:16:50;98578.31;;;22.54;32.69
55470;BME280;41334;47.872;16.384;2023-04-22T13:21:52;98560.22;;;22.65;32.13
55470;BME280;41334;47.872;16.384;2023-04-22T13:26:54;98558.19;;;22.87;31.32
55470;BME280;41334;47.872;16.384;2023-04-22T13:31:56;98555.41;;;22.80;32.12
55470;BME280;41334;47.872;16.384;2023-04-22T13:36:58;98544.53;;;22.82;32.62
55470;BME280;41334;47.872;16.384;2023-04-22T13:42:01;98549.75;;;22.77;32.29
55470;BME280;41334;47.872;16.384;2023-04-22T13:47:04;98538.47;;;22.87;31.01
55470;BME280;41334;47.872;16.384;2023-04-22T13:52:06;98538.47;;;22.84;31.03
55470;BME280;41334;47.872;16.384;2023-04-22T13:57:07;98536.88;;;22.83;33.42
55470;BME280;41334;47.872;16.384;2023-04-22T14:02:12;98534.47;;;22.88;30.67
55470;BME280;41334;47.872;16.384;2023-04-22T14:07:14;98539.31;;;22.81;32.77
55470;BME280;41334;47.872;16.384;2023-04-22T14:12:16;98524.41;;;22.80;31.09
55470;BME280;41334;47.872;16.384;2023-04-22T14:17:18;98526.44;;;22.62;32.75
55470;BME280;41334;47.872;16.384;2023-04-22T14:22:21;98528.03;;;22.59;31.80
55470;BME280;41334;47.872;16.384;2023-04-22T14:27:23;98522.41;;;22.66;30.76
55470;BME280;41334;47.872;16.384;2023-04-22T14:32:28;98516.38;;;22.43;31.52
55470;BME280;41334;47.872;16.384;2023-04-22T14:37:30;98516.38;;;22.46;31.00
55470;BME280;41334;47.872;16.384;2023-04-22T14:42:34;98509.13;;;22.42;30.00
55470;BME280;41334;47.872;16.384;2023-04-22T14:47:38;98512.34;;;22.62;30.60
55470;BME280;41334;47.872;16.384;2023-04-22T14:52:56;98506.34;;;22.49;31.04
55470;BME280;41334;47.872;16.384;2023-04-22T14:58:05;98498.25;;;22.58;31.15
55470;BME280;41334;47.872;16.384;2023-04-22T15:03:14;98497.06;;;22.52;31.82
55470;BME280;41334;47.872;16.384;2023-04-22T15:08:22;98494.25;;;22.16;32.83
55470;BME280;41334;47.872;16.384;2023-04-22T15:13:41;98478.94;;;22.10;32.98
55470;BME280;41334;47.872;16.384;2023-04-22T15:18:53;98481.72;;;21.92;32.03
55470;BME280;41334;47.872;16.384;2023-04-22T15:23:55;98480.53;;;21.97;32.87
55470;BME280;41334;47.872;16.384;2023-04-22T15:29:02;98485.75;;;21.95;32.51
55470;BME280;41334;47.872;16.384;2023-04-22T15:34:05;98485.34;;;22.00;32.54
55470;BME280;41334;47.872;16.384;2023-04-22T15:39:07;98482.91;;;21.81;33.48
55470;BME280;41334;47.872;16.384;2023-04-22T15:44:19;98495.31;;;21.73;34.78
55470;BME280;41334;47.872;16.384;2023-04-22T15:49:24;98486.06;;;21.72;33.35
55470;BME280;41334;47.872;16.384;2023-04-22T15:54:28;98484.84;;;21.59;33.70
55470;BME280;41334;47.872;16.384;2023-04-22T15:59:51;98492.41;;;21.44;34.70
55470;BME280;41334;47.872;16.384;2023-04-22T16:05:22;98490.66;;;21.18;34.02
55470;BME280;41334;47.872;16.384;2023-04-22T16:10:28;98486.97;;;21.00;33.79
55470;BME280;41334;47.872;16.384;2023-04-22T16:15:31;98484.06;;;20.85;34.29
55470;BME280;41334;47.872;16.384;2023-04-22T16:20:33;98488.78;;;20.74;35.55
55470;BME280;41334;47.872;16.384;2023-04-22T16:25:35;98488.72;;;20.63;35.74
55470;BME280;41334;47.872;16.384;2023-04-22T16:30:40;98487.00;;;20.48;35.44
55470;BME280;41334;47.872;16.384;2023-04-22T16:35:42;98486.06;;;20.37;35.34
55470;BME280;41334;47.872;16.384;2023-04-22T16:40:47;98487.44;;;20.13;36.41
55470;BME280;41334;47.872;16.384;2023-04-22T16:45:52;98493.06;;;20.13;35.85
55470;BME280;41334;47.872;16.384;2023-04-22T16:50:57;98488.50;;;19.94;36.39
55470;BME280;41334;47.872;16.384;2023-04-22T16:56:01;98494.78;;;19.84;37.23
55470;BME280;41334;47.872;16.384;2023-04-22T17:01:04;98496.56;;;19.62;37.41
55470;BME280;41334;47.872;16.384;2023-04-22T17:06:06;98503.56;;;19.49;37.95
55470;BME280;41334;47.872;16.384;2023-04-22T17:11:10;98507.34;;;19.30;37.95
55470;BME280;41334;47.872;16.384;2023-04-22T17:16:16;98493.31;;;19.00;38.13
55470;BME280;41334;47.872;16.384;2023-04-22T17:21:19;98491.78;;;18.76;39.13
55470;BME280;41334;47.872;16.384;2023-04-22T17:26:21;98492.59;;;18.53;39.89
55470;BME280;41334;47.872;16.384;2023-04-22T17:31:23;98489.81;;;18.27;41.73
55470;BME280;41334;47.872;16.384;2023-04-22T17:36:31;98488.84;;;17.96;41.47
55470;BME280;41334;47.872;16.384;2023-04-22T17:41:39;98493.53;;;17.69;41.32
55470;BME280;41334;47.872;16.384;2023-04-22T17:46:52;98498.97;;;17.43;42.18
55470;BME280;41334;47.872;16.384;2023-04-22T17:51:54;98510.84;;;17.20;43.37
55470;BME280;41334;47.872;16.384;2023-04-22T17:57:00;98505.66;;;16.99;43.99
55470;BME280;41334;47.872;16.384;2023-04-22T18:02:08;98504.25;;;16.74;44.41
55470;BME280;41334;47.872;16.384;2023-04-22T18:08:31;98513.81;;;16.57;45.08
55470;BME280;41334;47.872;16.384;2023-04-22T18:13:53;98528.56;;;16.42;45.11
55470;BME280;41334;47.872;16.384;2023-04-22T18:18:54;98521.09;;;16.30;44.98
55470;BME280;41334;47.872;16.384;2023-04-22T18:23:56;98523.97;;;16.18;45.51
55470;BME280;41334;47.872;16.384;2023-04-22T18:28:59;98525.03;;;16.13;45.49
55470;BME280;41334;47.872;16.384;2023-04-22T18:34:04;98530.31;;;16.03;45.57
55470;BME280;41334;47.872;16.384;2023-04-22T18:39:08;98531.56;;;15.89;46.37
55470;BME280;41334;47.872;16.384;2023-04-22T18:44:11;98534.25;;;15.86;46.05
55470;BME280;41334;47.872;16.384;2023-04-22T18:49:13;98527.69;;;15.78;46.51
55470;BME280;41334;47.872;16.384;2023-04-22T18:54:17;98547.81;;;15.71;47.13
55470;BME280;41334;47.872;16.384;2023-04-22T18:59:19;98544.09;;;15.55;47.33
55470;BME280;41334;47.872;16.384;2023-04-22T19:04:21;98538.72;;;15.46;47.34
55470;BME280;41334;47.872;16.384;2023-04-22T19:09:24;98541.63;;;15.38;47.90
55470;BME280;41334;47.872;16.384;2023-04-22T19:14:26;98547.34;;;15.29;48.17
55470;BME280;41334;47.872;16.384;2023-04-22T19:19:28;98547.72;;;15.15;49.16
55470;BME280;41334;47.872;16.384;2023-04-22T19:24:30;98556.31;;;15.10;48.56
55470;BME280;41334;47.872;16.384;2023-04-22T19:29:44;98544.19;;;15.03;48.74
55470;BME280;41334;47.872;16.384;2023-04-22T19:34:53;98544.53;;;14.89;49.11
55470;BME280;41334;47.872;16.384;2023-04-22T19:39:55;98541.41;;;14.78;49.48
55470;BME280;41334;47.872;16.384;2023-04-22T19:45:01;98540.84;;;14.73;50.09
55470;BME280;41334;47.872;16.384;2023-04-22T19:50:07;98547.44;;;14.68;49.44
55470;BME280;41334;47.872;16.384;2023-04-22T19:55:12;98545.84;;;14.55;50.27
55470;BME280;41334;47.872;16.384;2023-04-22T20:00:40;98544.53;;;14.40;51.00
55470;BME280;41334;47.872;16.384;2023-04-22T20:06:19;98546.72;;;14.34;50.81
55470;BME280;41334;47.872;16.384;2023-04-22T20:11:42;98542.31;;;14.21;50.96
55470;BME280;41334;47.872;16.384;2023-04-22T20:17:07;98543.22;;;14.13;51.51
55470;BME280;41334;47.872;16.384;2023-04-22T20:23:18;98540.19;;;14.06;51.44
55470;BME280;41334;47.872;16.384;2023-04-22T20:29:45;98536.38;;;13.98;51.77
55470;BME280;41334;47.872;16.384;2023-04-22T20:35:41;98537.50;;;13.85;52.30
55470;BME280;41334;47.872;16.384;2023-04-22T20:41:23;98545.56;;;13.78;52.45
55470;BME280;41334;47.872;16.384;2023-04-22T20:46:31;98543.22;;;13.68;52.59
55470;BME280;41334;47.872;16.384;2023-04-22T20:51:51;98532.81;;;13.65;52.36
55470;BME280;41334;47.872;16.384;2023-04-22T20:56:54;98532.91;;;13.56;52.53
55470;BME280;41334;47.872;16.384;2023-04-22T21:02:02;98535.44;;;13.49;52.66
55470;BME280;41334;47.872;16.384;2023-04-22T21:07:09;98536.19;;;13.37;53.41
55470;BME280;41334;47.872;16.384;2023-04-22T21:12:13;98531.06;;;13.27;53.58
55470;BME280;41334;47.872;16.384;2023-04-22T21:17:31;98532.31;;;13.29;53.53
55470;BME280;41334;47.872;16.384;2023-04-22T21:24:03;98539.06;;;13.20;53.89
55470;BME280;41334;47.872;16.384;2023-04-22T21:29:34;98537.50;;;13.10;53.98
55470;BME280;41334;47.872;16.384;2023-04-22T21:41:30;98538.72;;;13.00;54.31
55470;BME280;41334;47.872;16.384;2023-04-22T21:46:57;98536.97;;;12.96;54.46
55470;BME280;41334;47.872;16.384;2023-04-22T21:52:33;98536.69;;;12.89;54.59
55470;BME280;41334;47.872;16.384;2023-04-22T21:57:58;98536.94;;;12.75;55.05
55470;BME280;41334;47.872;16.384;2023-04-22T22:03:07;98531.13;;;12.68;55.46
55470;BME280;41334;47.872;16.384;2023-04-22T22:08:41;98534.72;;;12.68;55.48
55470;BME280;41334;47.872;16.384;2023-04-22T22:13:52;98519.47;;;12.53;55.76
55470;BME280;41334;47.872;16.384;2023-04-22T22:19:49;98524.25;;;12.44;56.03
55470;BME280;41334;47.872;16.384;2023-04-22T22:24:56;98517.25;;;12.47;56.08
55470;BME280;41334;47.872;16.384;2023-04-22T22:30:24;98523.63;;;12.39;56.21
55470;BME280;41334;47.872;16.384;2023-04-22T22:35:35;98519.56;;;12.36;56.30
55470;BME280;41334;47.872;16.384;2023-04-22T22:47:11;98518.66;;;12.23;56.27
55470;BME280;41334;47.872;16.384;2023-04-22T22:52:13;98520.31;;;12.16;57.17
55470;BME280;41334;47.872;16.384;2023-04-22T22:57:15;98518.53;;;12.11;57.22
55470;BME280;41334;47.872;16.384;2023-04-22T23:02:17;98515.78;;;12.11;57.08
55470;BME280;41334;47.872;16.384;2023-04-22T23:07:19;98515.09;;;12.14;57.15
55470;BME280;41334;47.872;16.384;2023-04-22T23:12:20;98509.28;;;12.07;57.40
55470;BME280;41334;47.872;16.384;2023-04-22T23:17:23;98507.50;;;12.02;57.34
55470;BME280;41334;47.872;16.384;2023-04-22T23:22:25;98503.97;;;11.93;57.55
55470;BME280;41334;47.872;16.384;2023-04-22T23:27:27;98498.94;;;11.87;57.78
55470;BME280;41334;47.872;16.384;2023-04-22T23:32:31;98505.44;;;11.82;58.02
55470;BME280;41334;47.872;16.384;2023-04-22T23:37:36;98493.72;;;11.85;57.83
55470;BME280;41334;47.872;16.384;2023-04-22T23:42:39;98489.97;;;11.81;58.13
55470;BME280;41334;47.872;16.384;2023-04-22T23:47:45;98482.53;;;11.73;57.98
55470;BME280;41334;47.872;16.384;2023-04-22T23:52:47;98477.97;;;11.68;57.65
55470;BME280;41334;47.872;16.384;2023-04-22T23:57:49;98481.06;;;11.67;58.49
